createdAt,value
2018-02-25T00:02:25.300Z,-4.90
2018-02-25T00:04:52.902Z,-4.90
2018-02-25T00:07:20.453Z,-4.90
2018-02-25T00:09:47.998Z,-5.00
2018-02-25T00:12:15.570Z,-5.00
2018-02-25T00:14:43.135Z,-5.00
2018-02-25T00:17:10.712Z,-5.00
2018-02-25T00:19:38.271Z,-5.10
2018-02-25T00:22:05.810Z,-5.00
2018-02-25T00:24:33.398Z,-5.10
2018-02-25T00:27:00.958Z,-5.10
2018-02-25T00:29:29.310Z,-5.10
2018-02-25T00:31:56.864Z,-5.20
2018-02-25T00:34:24.416Z,-5.20
2018-02-25T00:36:51.987Z,-5.20
2018-02-25T00:39:19.539Z,-5.30
2018-02-25T00:41:47.116Z,-5.30
2018-02-25T00:44:20.867Z,-5.30
2018-02-25T00:46:48.448Z,-5.30
2018-02-25T00:49:16.009Z,-5.40
2018-02-25T00:51:43.561Z,-5.40
2018-02-25T00:54:11.126Z,-5.40
2018-02-25T00:56:38.676Z,-5.40
2018-02-25T00:59:06.246Z,-5.50
2018-02-25T01:01:33.800Z,-5.50
2018-02-25T01:04:01.350Z,-5.60
2018-02-25T01:06:28.914Z,-5.60
2018-02-25T01:08:56.460Z,-5.60
2018-02-25T01:11:24.010Z,-5.60
2018-02-25T01:13:51.571Z,-5.70
2018-02-25T01:16:19.887Z,-5.70
2018-02-25T01:18:47.444Z,-5.70
2018-02-25T01:21:15.027Z,-5.70
2018-02-25T01:23:42.579Z,-5.70
2018-02-25T01:26:10.143Z,-5.70
2018-02-25T01:28:38.479Z,-5.70
2018-02-25T01:31:06.019Z,-5.80
2018-02-25T01:33:34.334Z,-5.80
2018-02-25T01:36:15.879Z,-5.80
2018-02-25T01:38:44.233Z,-5.80
2018-02-25T01:41:11.825Z,-5.80
2018-02-25T01:43:40.140Z,-5.80
2018-02-25T01:46:07.706Z,-5.90
2018-02-25T01:48:35.292Z,-5.90
2018-02-25T01:51:04.362Z,-5.90
2018-02-25T01:53:31.906Z,-6.00
2018-02-25T01:55:59.488Z,-5.90
2018-02-25T01:58:27.041Z,-6.00
2018-02-25T02:00:54.583Z,-6.00
2018-02-25T02:03:22.163Z,-6.00
2018-02-25T02:05:49.710Z,-6.00
2018-02-25T02:08:17.295Z,-6.10
2018-02-25T02:10:44.844Z,-6.10
2018-02-25T02:13:12.386Z,-6.10
2018-02-25T02:15:39.954Z,-6.10
2018-02-25T02:18:07.518Z,-6.20
2018-02-25T02:20:35.116Z,-6.20
2018-02-25T02:23:02.667Z,-6.20
2018-02-25T02:25:30.978Z,-6.20
2018-02-25T02:27:59.333Z,-6.30
2018-02-25T02:30:26.891Z,-6.30
2018-02-25T02:32:54.449Z,-6.30
2018-02-25T02:35:22.023Z,-6.40
2018-02-25T02:37:49.558Z,-6.40
2018-02-25T02:40:17.869Z,-6.40
2018-02-25T02:42:45.443Z,-6.40
2018-02-25T02:45:13.760Z,-6.50
2018-02-25T02:47:41.314Z,-6.50
2018-02-25T02:50:08.900Z,-6.50
2018-02-25T02:52:36.455Z,-6.50
2018-02-25T02:55:04.040Z,-6.50
2018-02-25T02:57:31.593Z,-6.50
2018-02-25T02:59:59.147Z,-6.50
2018-02-25T03:02:26.738Z,-6.60
2018-02-25T03:04:55.061Z,-6.60
2018-02-25T03:07:22.634Z,-6.70
2018-02-25T03:09:50.182Z,-6.60
2018-02-25T03:12:17.736Z,-6.70
2018-02-25T03:14:45.303Z,-6.70
2018-02-25T03:17:12.850Z,-6.70
2018-02-25T03:19:40.401Z,-6.70
2018-02-25T03:22:07.972Z,-6.70
2018-02-25T03:24:35.519Z,-6.80
2018-02-25T03:27:03.067Z,-6.80
2018-02-25T03:29:31.423Z,-6.80
2018-02-25T03:31:58.978Z,-6.80
2018-02-25T03:34:42.938Z,-6.80
2018-02-25T03:37:11.302Z,-6.80
2018-02-25T03:39:38.862Z,-6.90
2018-02-25T03:42:06.419Z,-6.90
2018-02-25T03:44:33.982Z,-6.90
2018-02-25T03:47:01.560Z,-6.90
2018-02-25T03:49:29.904Z,-6.90
2018-02-25T03:51:57.492Z,-6.90
2018-02-25T03:54:25.828Z,-7.00
2018-02-25T03:56:53.378Z,-7.00
2018-02-25T03:59:20.956Z,-7.00
2018-02-25T04:01:49.275Z,-7.10
2018-02-25T04:04:17.588Z,-7.00
2018-02-25T04:06:45.163Z,-7.10
2018-02-25T04:09:12.707Z,-7.00
2018-02-25T04:11:40.243Z,-7.10
2018-02-25T04:14:08.580Z,-7.10
2018-02-25T04:16:36.129Z,-7.10
2018-02-25T04:19:03.698Z,-7.10
2018-02-25T04:21:31.267Z,-7.10
2018-02-25T04:23:58.824Z,-7.10
2018-02-25T04:26:26.404Z,-7.20
2018-02-25T04:28:54.725Z,-7.20
2018-02-25T04:31:22.278Z,-7.30
2018-02-25T04:33:49.857Z,-7.30
2018-02-25T04:36:17.411Z,-7.20
2018-02-25T04:38:44.976Z,-7.30
2018-02-25T04:41:12.555Z,-7.30
2018-02-25T04:43:40.128Z,-7.30
2018-02-25T04:46:07.679Z,-7.30
2018-02-25T04:48:35.267Z,-7.30
2018-02-25T04:51:03.590Z,-7.40
2018-02-25T04:53:31.171Z,-7.40
2018-02-25T04:55:58.779Z,-7.30
2018-02-25T04:58:27.095Z,-7.40
2018-02-25T05:00:54.665Z,-7.40
2018-02-25T05:03:22.212Z,-7.40
2018-02-25T05:05:49.770Z,-7.40
2018-02-25T05:08:17.357Z,-7.50
2018-02-25T05:10:44.925Z,-7.50
2018-02-25T05:13:12.558Z,-7.50
2018-02-25T05:15:40.111Z,-7.50
2018-02-25T05:18:07.779Z,-7.50
2018-02-25T05:20:35.359Z,-7.60
2018-02-25T05:23:02.919Z,-7.50
2018-02-25T05:25:30.502Z,-7.60
2018-02-25T05:27:58.055Z,-7.60
2018-02-25T05:30:25.616Z,-7.60
2018-02-25T05:32:53.190Z,-7.60
2018-02-25T05:35:21.551Z,-7.60
2018-02-25T05:37:49.156Z,-7.70
2018-02-25T05:40:16.729Z,-7.70
2018-02-25T05:42:44.275Z,-7.70
2018-02-25T05:45:11.860Z,-7.70
2018-02-25T05:47:39.427Z,-7.70
2018-02-25T05:50:06.983Z,-7.80
2018-02-25T05:52:34.570Z,-7.80
2018-02-25T05:55:02.159Z,-7.80
2018-02-25T05:57:30.510Z,-7.80
2018-02-25T05:59:58.099Z,-7.80
2018-02-25T06:02:26.428Z,-7.80
2018-02-25T06:04:53.980Z,-7.90
2018-02-25T06:07:21.560Z,-7.90
2018-02-25T06:09:49.116Z,-7.90
2018-02-25T06:12:16.674Z,-7.90
2018-02-25T06:14:44.274Z,-7.90
2018-02-25T06:17:12.598Z,-7.90
2018-02-25T06:19:40.165Z,-7.90
2018-02-25T06:22:07.738Z,-7.90
2018-02-25T06:24:35.282Z,-8.00
2018-02-25T06:27:02.861Z,-8.00
2018-02-25T06:29:30.448Z,-8.00
2018-02-25T06:31:58.009Z,-8.00
2018-02-25T06:34:25.602Z,-8.00
2018-02-25T06:36:53.157Z,-8.00
2018-02-25T06:39:20.707Z,-8.00
2018-02-25T06:41:49.057Z,-8.00
2018-02-25T06:44:16.610Z,-8.00
2018-02-25T06:46:44.163Z,-7.90
2018-02-25T06:49:11.735Z,-7.90
2018-02-25T06:51:39.301Z,-7.90
2018-02-25T06:54:06.938Z,-7.80
2018-02-25T06:56:34.484Z,-7.80
2018-02-25T06:59:02.091Z,-7.70
2018-02-25T07:01:29.647Z,-7.70
2018-02-25T07:04:00.730Z,-7.70
2018-02-25T07:09:22.986Z,-7.60
2018-02-25T07:11:54.002Z,-7.60
2018-02-25T07:14:22.309Z,-7.50
2018-02-25T07:16:49.903Z,-7.50
2018-02-25T07:19:19.408Z,-7.50
2018-02-25T07:21:50.446Z,-7.40
2018-02-25T07:27:16.681Z,-7.30
2018-02-25T07:30:09.658Z,-7.30
2018-02-25T07:32:37.199Z,-7.30
2018-02-25T07:35:04.785Z,-7.20
2018-02-25T07:37:32.350Z,-7.20
2018-02-25T07:39:59.905Z,-7.20
2018-02-25T07:42:27.534Z,-7.20
2018-02-25T07:44:55.054Z,-7.10
2018-02-25T07:47:23.406Z,-7.00
2018-02-25T07:49:51.016Z,-7.00
2018-02-25T07:52:37.882Z,-6.90
2018-02-25T07:55:05.475Z,-6.90
2018-02-25T07:57:33.804Z,-6.80
2018-02-25T08:00:15.431Z,-6.90
2018-02-25T08:02:43.739Z,-6.70
2018-02-25T08:05:11.295Z,-6.70
2018-02-25T08:07:38.855Z,-6.60
2018-02-25T08:10:06.411Z,-6.50
2018-02-25T08:12:33.995Z,-6.60
2018-02-25T08:15:01.536Z,-6.50
2018-02-25T08:17:29.097Z,-6.60
2018-02-25T08:19:56.677Z,-6.50
2018-02-25T08:22:24.218Z,-6.50
2018-02-25T08:24:51.800Z,-6.50
2018-02-25T08:27:19.374Z,-6.50
2018-02-25T08:29:46.926Z,-6.40
2018-02-25T08:32:14.503Z,-6.40
2018-02-25T08:34:48.454Z,-6.30
2018-02-25T08:37:16.904Z,-6.10
2018-02-25T08:39:45.247Z,-6.10
2018-02-25T08:42:12.795Z,-6.10
2018-02-25T08:44:40.367Z,-6.00
2018-02-25T08:47:07.916Z,-6.00
2018-02-25T08:49:35.476Z,-6.00
2018-02-25T08:52:03.054Z,-5.90
2018-02-25T08:54:30.617Z,-5.90
2018-02-25T08:56:58.191Z,-5.80
2018-02-25T08:59:25.770Z,-5.80
2018-02-25T09:01:59.431Z,-5.80
2018-02-25T09:04:27.003Z,-5.70
2018-02-25T09:06:54.565Z,-5.70
2018-02-25T09:09:22.139Z,-5.60
2018-02-25T09:11:49.684Z,-5.60
2018-02-25T09:14:17.260Z,-5.50
2018-02-25T09:16:44.832Z,-5.40
2018-02-25T09:19:12.388Z,-5.20
2018-02-25T09:21:39.944Z,-5.10
2018-02-25T09:24:07.525Z,-5.10
2018-02-25T09:26:35.835Z,-5.20
2018-02-25T09:29:03.408Z,-5.20
2018-02-25T09:31:30.986Z,-5.10
2018-02-25T09:33:58.535Z,-5.00
2018-02-25T09:36:26.078Z,-4.90
2018-02-25T09:38:53.651Z,-4.80
2018-02-25T09:41:21.242Z,-4.70
2018-02-25T09:43:48.811Z,-4.60
2018-02-25T09:46:28.866Z,-4.60
2018-02-25T09:48:56.440Z,-4.70
2018-02-25T09:51:24.754Z,-4.50
2018-02-25T09:53:52.290Z,-4.60
2018-02-25T09:56:20.648Z,-4.40
2018-02-25T09:58:49.169Z,-4.40
2018-02-25T10:01:16.737Z,-4.30
2018-02-25T10:03:44.306Z,-4.20
2018-02-25T10:06:11.910Z,-4.10
2018-02-25T10:08:39.453Z,-4.10
2018-02-25T10:11:07.064Z,-4.10
2018-02-25T10:13:34.610Z,-4.10
2018-02-25T10:16:02.928Z,-4.10
2018-02-25T10:18:30.500Z,-4.10
2018-02-25T10:20:58.091Z,-4.10
2018-02-25T10:23:25.632Z,-4.00
2018-02-25T10:25:53.983Z,-3.90
2018-02-25T10:28:21.530Z,-3.90
2018-02-25T10:30:49.086Z,-3.80
2018-02-25T10:33:16.794Z,-3.70
2018-02-25T10:35:44.330Z,-3.60
2018-02-25T10:38:11.887Z,-3.50
2018-02-25T10:40:39.468Z,-3.50
2018-02-25T10:43:07.008Z,-3.50
2018-02-25T10:48:22.000Z,-3.60
2018-02-25T10:50:49.584Z,-3.60
2018-02-25T10:53:17.120Z,-3.40
2018-02-25T10:55:44.695Z,-3.30
2018-02-25T10:58:12.291Z,-3.20
2018-02-25T11:00:40.613Z,-3.00
2018-02-25T11:03:09.107Z,-3.00
2018-02-25T11:05:36.694Z,-2.90
2018-02-25T11:08:04.238Z,-3.00
2018-02-25T11:10:31.866Z,-3.00
2018-02-25T11:12:59.407Z,-2.90
2018-02-25T11:15:27.044Z,-3.00
2018-02-25T11:17:54.606Z,-2.90
2018-02-25T11:20:22.251Z,-2.80
2018-02-25T11:22:49.846Z,-2.70
2018-02-25T11:25:18.179Z,-2.70
2018-02-25T11:27:45.728Z,-2.70
2018-02-25T11:30:13.311Z,-2.60
2018-02-25T11:32:40.862Z,-2.50
2018-02-25T11:35:08.420Z,-2.40
2018-02-25T11:37:35.994Z,-2.40
2018-02-25T11:40:03.610Z,-2.30
2018-02-25T11:42:31.199Z,-2.20
2018-02-25T11:44:58.752Z,-2.10
2018-02-25T11:47:26.350Z,-2.20
2018-02-25T11:49:53.955Z,-2.20
2018-02-25T11:52:21.502Z,-2.20
2018-02-25T11:54:49.215Z,-2.10
2018-02-25T11:57:16.847Z,-2.10
2018-02-25T11:59:44.407Z,-2.10
2018-02-25T12:02:12.016Z,-2.00
2018-02-25T12:04:39.572Z,-1.80
2018-02-25T12:07:07.142Z,-1.80
2018-02-25T12:09:35.487Z,-1.70
2018-02-25T12:12:03.093Z,-1.70
2018-02-25T12:14:30.684Z,-1.60
2018-02-25T12:16:58.239Z,-1.50
2018-02-25T12:19:25.816Z,-1.50
2018-02-25T12:21:53.399Z,-1.50
2018-02-25T12:24:20.962Z,-1.60
2018-02-25T12:26:48.523Z,-1.70
2018-02-25T12:29:16.096Z,-1.70
2018-02-25T12:31:43.682Z,-1.70
2018-02-25T12:34:12.043Z,-1.60
2018-02-25T12:36:39.604Z,-1.60
2018-02-25T12:39:07.917Z,-1.40
2018-02-25T12:41:35.494Z,-1.40
2018-02-25T12:44:03.047Z,-1.30
2018-02-25T12:46:30.638Z,-1.20
2018-02-25T12:48:58.183Z,-1.40
2018-02-25T12:51:25.751Z,-1.30
2018-02-25T12:53:53.350Z,-1.40
2018-02-25T12:56:22.595Z,-1.50
2018-02-25T12:58:50.158Z,-1.50
2018-02-25T13:01:17.754Z,-1.60
2018-02-25T13:03:45.323Z,-1.60
2018-02-25T13:06:12.888Z,-1.60
2018-02-25T13:08:41.247Z,-1.60
2018-02-25T13:11:08.812Z,-1.60
2018-02-25T13:13:36.456Z,-1.60
2018-02-25T13:16:04.047Z,-1.60
2018-02-25T13:18:32.365Z,-1.60
2018-02-25T13:20:59.976Z,-1.60
2018-02-25T13:23:27.526Z,-1.60
2018-02-25T13:25:55.077Z,-1.60
2018-02-25T13:28:22.714Z,-1.60
2018-02-25T13:30:50.281Z,-1.60
2018-02-25T13:33:17.868Z,-1.70
2018-02-25T13:35:45.422Z,-1.70
2018-02-25T13:38:12.989Z,-1.60
2018-02-25T13:40:40.586Z,-1.60
2018-02-25T13:43:08.142Z,-1.50
2018-02-25T13:45:36.511Z,-1.90
2018-02-25T13:48:04.839Z,-2.00
2018-02-25T13:50:32.423Z,-2.00
2018-02-25T13:53:00.013Z,-1.90
2018-02-25T13:55:28.344Z,-1.80
2018-02-25T13:57:55.951Z,-1.80
2018-02-25T14:00:24.295Z,-1.70
2018-02-25T14:02:51.862Z,-1.80
2018-02-25T14:05:19.463Z,-1.80
2018-02-25T14:07:47.800Z,-1.80
2018-02-25T14:10:15.356Z,-1.80
2018-02-25T14:12:43.351Z,-1.80
2018-02-25T14:15:10.957Z,-1.70
2018-02-25T14:17:40.294Z,-1.80
2018-02-25T14:20:07.870Z,-1.80
2018-02-25T14:22:35.436Z,-1.70
2018-02-25T14:25:03.020Z,-1.70
2018-02-25T14:27:30.620Z,-1.60
2018-02-25T14:29:58.194Z,-1.70
2018-02-25T14:32:25.775Z,-1.70
2018-02-25T14:34:54.110Z,-1.90
2018-02-25T14:37:21.704Z,-1.90
2018-02-25T14:39:49.292Z,-1.80
2018-02-25T14:42:17.647Z,-1.50
2018-02-25T14:44:45.190Z,-1.50
2018-02-25T14:47:12.869Z,-1.40
2018-02-25T14:49:40.439Z,-1.50
2018-02-25T14:52:08.760Z,-1.80
2018-02-25T14:54:36.360Z,-1.80
2018-02-25T14:57:04.006Z,-1.90
2018-02-25T14:59:31.530Z,-2.00
2018-02-25T15:01:59.162Z,-2.10
2018-02-25T15:04:27.488Z,-2.30
2018-02-25T15:06:55.076Z,-2.30
2018-02-25T15:09:22.629Z,-2.30
2018-02-25T15:11:50.197Z,-2.20
2018-02-25T15:14:17.779Z,-2.20
2018-02-25T15:16:45.336Z,-2.30
2018-02-25T15:19:12.922Z,-2.30
2018-02-25T15:21:41.242Z,-2.40
2018-02-25T15:24:09.566Z,-2.40
2018-02-25T15:26:37.933Z,-2.40
2018-02-25T15:29:05.488Z,-2.40
2018-02-25T15:31:33.074Z,-2.40
2018-02-25T15:34:01.417Z,-2.50
2018-02-25T15:36:28.976Z,-2.50
2018-02-25T15:38:56.572Z,-2.50
2018-02-25T15:41:24.900Z,-2.50
2018-02-25T15:43:52.521Z,-2.50
2018-02-25T15:46:20.853Z,-2.60
2018-02-25T15:48:48.410Z,-2.60
2018-02-25T15:51:15.990Z,-2.60
2018-02-25T15:53:43.578Z,-2.60
2018-02-25T15:56:11.902Z,-2.70
2018-02-25T15:58:39.518Z,-2.70
2018-02-25T16:01:07.228Z,-2.70
2018-02-25T16:03:34.811Z,-2.70
2018-02-25T16:06:02.386Z,-2.70
2018-02-25T16:08:30.740Z,-2.80
2018-02-25T16:10:58.348Z,-2.80
2018-02-25T16:13:25.902Z,-2.80
2018-02-25T16:15:53.502Z,-2.90
2018-02-25T16:18:21.077Z,-3.00
2018-02-25T16:20:48.655Z,-3.00
2018-02-25T16:23:16.213Z,-3.10
2018-02-25T16:25:43.832Z,-3.10
2018-02-25T16:28:11.380Z,-3.10
2018-02-25T16:30:38.962Z,-3.20
2018-02-25T16:33:06.534Z,-3.30
2018-02-25T16:35:34.102Z,-3.30
2018-02-25T16:38:01.690Z,-3.40
2018-02-25T16:40:30.013Z,-3.50
2018-02-25T16:42:57.570Z,-3.50
2018-02-25T16:45:25.202Z,-3.50
2018-02-25T16:47:54.300Z,-3.60
2018-02-25T16:50:26.106Z,-3.70
2018-02-25T16:52:53.675Z,-3.70
2018-02-25T16:55:21.244Z,-3.70
2018-02-25T16:57:48.823Z,-3.80
2018-02-25T17:00:16.383Z,-3.80
2018-02-25T17:02:43.934Z,-3.80
2018-02-25T17:05:11.514Z,-3.90
2018-02-25T17:07:39.836Z,-3.90
2018-02-25T17:10:07.410Z,-3.90
2018-02-25T17:12:34.958Z,-3.90
2018-02-25T17:15:02.543Z,-3.90
2018-02-25T17:17:31.956Z,-3.90
2018-02-25T17:19:59.509Z,-4.00
2018-02-25T17:22:27.166Z,-4.00
2018-02-25T17:24:54.710Z,-4.10
2018-02-25T17:27:22.866Z,-4.10
2018-02-25T17:29:50.429Z,-4.20
2018-02-25T17:32:17.991Z,-4.30
2018-02-25T17:34:45.568Z,-4.30
2018-02-25T17:37:13.116Z,-4.30
2018-02-25T17:39:40.667Z,-4.30
2018-02-25T17:42:08.247Z,-4.30
2018-02-25T17:44:35.789Z,-4.30
2018-02-25T17:47:03.353Z,-4.30
2018-02-25T17:49:30.928Z,-4.30
2018-02-25T17:51:58.484Z,-4.40
2018-02-25T17:54:26.058Z,-4.40
2018-02-25T17:56:53.623Z,-4.50
2018-02-25T17:59:21.185Z,-4.50
2018-02-25T18:01:48.748Z,-4.50
2018-02-25T18:04:16.329Z,-4.50
2018-02-25T18:06:43.907Z,-4.60
2018-02-25T18:09:12.217Z,-4.60
2018-02-25T18:11:39.808Z,-4.60
2018-02-25T18:14:07.378Z,-4.60
2018-02-25T18:16:34.935Z,-4.60
2018-02-25T18:19:02.511Z,-4.60
2018-02-25T18:21:30.072Z,-4.70
2018-02-25T18:23:58.395Z,-4.80
2018-02-25T18:26:25.995Z,-4.80
2018-02-25T18:28:53.547Z,-4.80
2018-02-25T18:31:21.103Z,-4.90
2018-02-25T18:33:48.729Z,-4.90
2018-02-25T18:36:16.287Z,-5.00
2018-02-25T18:38:43.827Z,-5.00
2018-02-25T18:41:12.182Z,-5.00
2018-02-25T18:43:39.765Z,-5.00
2018-02-25T18:46:07.357Z,-5.00
2018-02-25T18:48:34.936Z,-5.00
2018-02-25T18:51:02.511Z,-5.00
2018-02-25T18:53:30.072Z,-5.10
2018-02-25T18:55:57.642Z,-5.10
2018-02-25T18:58:25.186Z,-5.10
2018-02-25T19:00:52.768Z,-5.10
2018-02-25T19:03:20.314Z,-5.20
2018-02-25T19:05:47.896Z,-5.10
2018-02-25T19:08:16.244Z,-5.20
2018-02-25T19:10:43.795Z,-5.20
2018-02-25T19:13:11.365Z,-5.30
2018-02-25T19:15:38.916Z,-5.20
2018-02-25T19:18:06.511Z,-5.30
2018-02-25T19:20:34.090Z,-5.20
2018-02-25T19:23:02.432Z,-5.20
2018-02-25T19:25:29.991Z,-5.30
2018-02-25T19:28:00.825Z,-5.20
2018-02-25T19:30:28.382Z,-5.30
2018-02-25T19:32:55.937Z,-5.30
2018-02-25T19:35:23.554Z,-5.20
2018-02-25T19:37:56.774Z,-5.20
2018-02-25T19:40:30.098Z,-5.20
2018-02-25T19:42:57.664Z,-5.20
2018-02-25T19:45:25.244Z,-5.20
2018-02-25T19:47:53.763Z,-5.20
2018-02-25T19:50:21.346Z,-5.20
2018-02-25T19:52:52.086Z,-5.20
2018-02-25T19:55:22.963Z,-5.20
2018-02-25T19:57:58.526Z,-5.30
2018-02-25T20:00:40.043Z,-5.30
2018-02-25T20:03:07.586Z,-5.30
2018-02-25T20:05:35.130Z,-5.30
2018-02-25T20:08:03.471Z,-5.30
2018-02-25T20:10:31.018Z,-5.30
2018-02-25T20:12:58.608Z,-5.30
2018-02-25T20:15:26.151Z,-5.30
2018-02-25T20:17:53.704Z,-5.30
2018-02-25T20:20:21.287Z,-5.40
2018-02-25T20:22:48.826Z,-5.40
2018-02-25T20:25:16.418Z,-5.40
2018-02-25T20:27:44.737Z,-5.40
2018-02-25T20:30:12.302Z,-5.40
2018-02-25T20:32:39.875Z,-5.40
2018-02-25T20:35:07.423Z,-5.40
2018-02-25T20:37:34.968Z,-5.40
2018-02-25T20:40:02.575Z,-5.40
2018-02-25T20:42:32.150Z,-5.50
2018-02-25T20:45:00.731Z,-5.50
2018-02-25T20:47:30.620Z,-5.50
2018-02-25T20:49:58.181Z,-5.50
2018-02-25T20:52:25.723Z,-5.50
2018-02-25T20:54:54.067Z,-5.50
2018-02-25T20:57:21.627Z,-5.50
2018-02-25T20:59:49.185Z,-5.50
2018-02-25T21:02:20.497Z,-5.50
2018-02-25T21:04:48.107Z,-5.50
2018-02-25T21:07:15.653Z,-5.50
2018-02-25T21:09:44.007Z,-5.50
2018-02-25T21:12:11.554Z,-5.60
2018-02-25T21:14:39.107Z,-5.50
2018-02-25T21:17:07.622Z,-5.60
2018-02-25T21:19:35.174Z,-5.60
2018-02-25T21:22:02.742Z,-5.60
2018-02-25T21:24:30.310Z,-5.60
2018-02-25T21:26:57.889Z,-5.70
2018-02-25T21:29:25.518Z,-5.70
2018-02-25T21:31:53.083Z,-5.70
2018-02-25T21:34:20.656Z,-5.70
2018-02-25T21:36:48.198Z,-5.80
2018-02-25T21:39:15.744Z,-5.80
2018-02-25T21:41:43.316Z,-5.80
2018-02-25T21:44:10.873Z,-5.80
2018-02-25T21:46:38.454Z,-5.90
2018-02-25T21:49:06.012Z,-5.90
2018-02-25T21:51:33.562Z,-5.90
2018-02-25T21:54:01.151Z,-5.90
2018-02-25T21:56:34.424Z,-6.00
2018-02-25T21:59:07.653Z,-6.00
2018-02-25T22:01:41.717Z,-6.10
2018-02-25T22:04:09.307Z,-6.10
2018-02-25T22:06:36.868Z,-6.10
2018-02-25T22:09:04.431Z,-6.10
2018-02-25T22:11:32.026Z,-6.20
2018-02-25T22:14:00.343Z,-6.20
2018-02-25T22:16:27.887Z,-6.20
2018-02-25T22:18:55.452Z,-6.20
2018-02-25T22:21:23.007Z,-6.30
2018-02-25T22:23:50.586Z,-6.30
2018-02-25T22:26:18.912Z,-6.30
2018-02-25T22:28:47.220Z,-6.40
2018-02-25T22:31:14.817Z,-6.40
2018-02-25T22:33:42.375Z,-6.40
2018-02-25T22:36:09.922Z,-6.40
2018-02-25T22:38:37.507Z,-6.40
2018-02-25T22:41:05.058Z,-6.40
2018-02-25T22:43:32.616Z,-6.50
2018-02-25T22:46:00.190Z,-6.50
2018-02-25T22:48:27.741Z,-6.50
2018-02-25T22:50:55.284Z,-6.50
2018-02-25T22:53:26.550Z,-6.60
2018-02-25T22:55:54.098Z,-6.60
2018-02-25T22:58:21.673Z,-6.60
2018-02-25T23:00:49.232Z,-6.70
2018-02-25T23:03:16.803Z,-6.70
2018-02-25T23:05:44.389Z,-6.70
2018-02-25T23:08:11.940Z,-6.70
2018-02-25T23:10:40.286Z,-6.70
2018-02-25T23:13:07.829Z,-6.70
2018-02-25T23:15:35.391Z,-6.70
2018-02-25T23:18:02.976Z,-6.70
2018-02-25T23:20:30.523Z,-6.70
2018-02-25T23:22:58.077Z,-6.80
2018-02-25T23:25:25.654Z,-6.80
2018-02-25T23:27:53.209Z,-6.80
2018-02-25T23:30:20.782Z,-6.90
2018-02-25T23:32:48.365Z,-6.90
2018-02-25T23:35:15.903Z,-6.90
2018-02-25T23:37:43.490Z,-6.90
2018-02-25T23:40:11.802Z,-6.90
2018-02-25T23:42:39.346Z,-7.00
2018-02-25T23:45:06.911Z,-7.00
2018-02-25T23:47:35.315Z,-7.00
2018-02-25T23:50:03.648Z,-7.00
2018-02-25T23:52:31.199Z,-7.10
2018-02-25T23:54:59.518Z,-7.10
2018-02-25T23:57:27.089Z,-7.10
2018-02-25T23:59:54.641Z,-7.10
